FIGHTER VNKT-VNKT
Flight info
| Callsign | FIGHTER |
|---|---|
| Flight time | N/A |
| Altitude | 29000 |
| Route | N/A |
| Aircraft | F18H/L-SDE2E3FGHIJ1RWXY/LB1 |
Departure
| Time | 2026-04-30 09:48 |
|---|---|
| Airport | Tribhuvan International Airport (VNKT) |
Arrival
| Time | N/A |
|---|---|
| Airport | Tribhuvan International Airport (VNKT) |
| Time | Latitude | Longitude | Altitude | Speed | Heading |
|---|---|---|---|---|---|
| 2026-04-30 09:43 | 27.69824 | 85.35749 | 4358 ft | 0 kts | 291° |
| 2026-04-30 09:46 | 27.69821 | 85.35746 | 4358 ft | 2 kts | 211° |
| 2026-04-30 09:47 | 27.69762 | 85.35788 | 4360 ft | 19 kts | 194° |
| 2026-04-30 09:47 | 27.69567 | 85.35749 | 4358 ft | 39 kts | 200° |
| 2026-04-30 09:47 | 27.69507 | 85.35739 | 4358 ft | 0 kts | 160° |
| 2026-04-30 09:47 | 27.69476 | 85.35810 | 4355 ft | 22 kts | 71° |
| 2026-04-30 09:48 | 27.70035 | 85.36085 | 4382 ft | 192 kts | 21° |
| 2026-04-30 09:48 | 27.71924 | 85.36950 | 5375 ft | 392 kts | 22° |
| 2026-04-30 09:48 | 27.75030 | 85.38395 | 7234 ft | 564 kts | 22° |
| 2026-04-30 09:48 | 27.79054 | 85.40276 | 9754 ft | 672 kts | 22° |
| 2026-04-30 09:49 | 27.83708 | 85.42452 | 10840 ft | 782 kts | 22° |
| 2026-04-30 09:49 | 27.88971 | 85.44860 | 7710 ft | 820 kts | 21° |
| 2026-04-30 09:49 | 27.94567 | 85.47024 | 8155 ft | 827 kts | 18° |
| 2026-04-30 09:49 | 27.99335 | 85.48803 | 14153 ft | 779 kts | 17° |
| 2026-04-30 09:50 | 28.04674 | 85.50574 | 15655 ft | 833 kts | 15° |
| 2026-04-30 09:50 | 28.10388 | 85.52256 | 16698 ft | 857 kts | 11° |
| 2026-04-30 09:50 | 28.16169 | 85.52571 | 19837 ft | 838 kts | 356° |
| 2026-04-30 09:50 | 28.21842 | 85.52231 | 21241 ft | 688 kts | 355° |
| 2026-04-30 09:51 | 28.25372 | 85.52029 | 23561 ft | 289 kts | 356° |
| 2026-04-30 09:51 | 28.26592 | 85.52225 | 24372 ft | 139 kts | 332° |
| 2026-04-30 09:51 | 28.27443 | 85.51820 | 19379 ft | 212 kts | 323° |
| 2026-04-30 09:51 | 28.30283 | 85.50865 | 14920 ft | 558 kts | 346° |
| 2026-04-30 09:52 | 28.34025 | 85.52294 | 16929 ft | 622 kts | 27° |
| 2026-04-30 09:52 | 28.38344 | 85.54425 | 16406 ft | 736 kts | 5° |
| 2026-04-30 09:52 | 28.43261 | 85.56781 | 16384 ft | 808 kts | 14° |
| 2026-04-30 09:52 | 28.48840 | 85.57251 | 18848 ft | 791 kts | 8° |
| 2026-04-30 09:53 | 28.54114 | 85.57025 | 22278 ft | 717 kts | 303° |
| 2026-04-30 09:53 | 28.52109 | 85.54414 | 19059 ft | 686 kts | 166° |
| 2026-04-30 09:53 | 28.47241 | 85.56324 | 17362 ft | 775 kts | 160° |
| 2026-04-30 09:53 | 28.42027 | 85.55885 | 16149 ft | 815 kts | 215° |
| 2026-04-30 09:54 | 28.38632 | 85.53279 | 14936 ft | 451 kts | 206° |
| 2026-04-30 09:54 | 28.35355 | 85.51523 | 11880 ft | 625 kts | 213° |
| 2026-04-30 09:54 | 28.31366 | 85.48955 | 11798 ft | 664 kts | 181° |
| 2026-04-30 09:54 | 28.27232 | 85.49112 | 20636 ft | 605 kts | 178° |
| 2026-04-30 09:55 | 28.24071 | 85.48697 | 24073 ft | 237 kts | 255° |
| 2026-04-30 09:55 | 28.23138 | 85.47994 | 21093 ft | 143 kts | 251° |
| 2026-04-30 09:55 | 28.22082 | 85.47624 | 15098 ft | 257 kts | 183° |
| 2026-04-30 09:55 | 28.21326 | 85.49149 | 11176 ft | 253 kts | 87° |
| 2026-04-30 09:56 | 28.21636 | 85.50807 | 11284 ft | 161 kts | 76° |
| 2026-04-30 09:56 | 28.21671 | 85.50953 | 11294 ft | 0 kts | 77° |